sensor_id;sensor_type;location;lat;lon;timestamp;pressure;altitude;pressure_sealevel;temperature;humidity
69127;BME280;56688;50.234;19.292;2024-02-23T00:01:01;96586.94;;;9.82;66.93
69127;BME280;56688;50.234;19.292;2024-02-23T00:03:28;96588.30;;;9.81;67.02
69127;BME280;56688;50.234;19.292;2024-02-23T00:05:55;96583.70;;;9.81;67.20
69127;BME280;56688;50.234;19.292;2024-02-23T00:08:22;96581.95;;;9.81;67.21
69127;BME280;56688;50.234;19.292;2024-02-23T00:10:50;96585.16;;;9.80;67.26
69127;BME280;56688;50.234;19.292;2024-02-23T00:13:17;96581.57;;;9.79;67.26
69127;BME280;56688;50.234;19.292;2024-02-23T00:15:44;96579.42;;;9.78;67.33
69127;BME280;56688;50.234;19.292;2024-02-23T00:18:11;96579.95;;;9.75;67.92
69127;BME280;56688;50.234;19.292;2024-02-23T00:20:40;96580.92;;;9.72;68.35
69127;BME280;56688;50.234;19.292;2024-02-23T00:23:07;96583.98;;;9.67;68.77
69127;BME280;56688;50.234;19.292;2024-02-23T00:25:34;96577.60;;;9.65;69.15
69127;BME280;56688;50.234;19.292;2024-02-23T00:28:01;96575.05;;;9.63;69.62
69127;BME280;56688;50.234;19.292;2024-02-23T00:30:28;96575.55;;;9.61;69.72
69127;BME280;56688;50.234;19.292;2024-02-23T00:32:55;96571.53;;;9.58;69.86
69127;BME280;56688;50.234;19.292;2024-02-23T00:35:22;96571.77;;;9.55;70.05
69127;BME280;56688;50.234;19.292;2024-02-23T00:37:50;96572.86;;;9.52;70.68
69127;BME280;56688;50.234;19.292;2024-02-23T00:40:17;96571.03;;;9.44;70.91
69127;BME280;56688;50.234;19.292;2024-02-23T00:42:44;96566.66;;;9.40;71.07
69127;BME280;56688;50.234;19.292;2024-02-23T00:45:11;96566.59;;;9.35;71.35
69127;BME280;56688;50.234;19.292;2024-02-23T00:47:38;96564.83;;;9.32;71.27
69127;BME280;56688;50.234;19.292;2024-02-23T00:50:06;96563.88;;;9.30;71.55
69127;BME280;56688;50.234;19.292;2024-02-23T00:52:33;96559.66;;;9.29;71.65
69127;BME280;56688;50.234;19.292;2024-02-23T00:55:00;96562.27;;;9.28;71.92
69127;BME280;56688;50.234;19.292;2024-02-23T00:57:27;96558.25;;;9.27;72.20
69127;BME280;56688;50.234;19.292;2024-02-23T00:59:57;96561.47;;;9.23;72.44
69127;BME280;56688;50.234;19.292;2024-02-23T01:02:24;96564.77;;;9.21;72.25
69127;BME280;56688;50.234;19.292;2024-02-23T01:04:51;96563.70;;;9.18;72.31
69127;BME280;56688;50.234;19.292;2024-02-23T01:07:24;96560.86;;;9.16;72.25
69127;BME280;56688;50.234;19.292;2024-02-23T01:09:54;96560.57;;;9.15;72.49
69127;BME280;56688;50.234;19.292;2024-02-23T01:12:21;96556.46;;;9.12;72.52
69127;BME280;56688;50.234;19.292;2024-02-23T01:14:48;96560.15;;;9.11;72.73
69127;BME280;56688;50.234;19.292;2024-02-23T01:17:15;96565.52;;;9.11;72.84
69127;BME280;56688;50.234;19.292;2024-02-23T01:19:43;96561.09;;;9.11;72.89
69127;BME280;56688;50.234;19.292;2024-02-23T01:22:11;96563.92;;;9.11;72.74
69127;BME280;56688;50.234;19.292;2024-02-23T01:24:38;96559.66;;;9.11;72.52
69127;BME280;56688;50.234;19.292;2024-02-23T01:27:04;96563.38;;;9.12;72.19
69127;BME280;56688;50.234;19.292;2024-02-23T01:29:31;96562.95;;;9.16;71.69
69127;BME280;56688;50.234;19.292;2024-02-23T01:31:59;96562.86;;;9.23;71.20
69127;BME280;56688;50.234;19.292;2024-02-23T01:34:27;96568.56;;;9.29;70.78
69127;BME280;56688;50.234;19.292;2024-02-23T01:36:54;96576.11;;;9.33;70.91
69127;BME280;56688;50.234;19.292;2024-02-23T01:39:21;96577.80;;;9.35;70.88
69127;BME280;56688;50.234;19.292;2024-02-23T01:41:48;96576.24;;;9.36;70.56
69127;BME280;56688;50.234;19.292;2024-02-23T01:44:16;96579.89;;;9.36;70.74
69127;BME280;56688;50.234;19.292;2024-02-23T01:46:44;96575.93;;;9.38;70.71
69127;BME280;56688;50.234;19.292;2024-02-23T01:49:12;96578.17;;;9.41;70.61
69127;BME280;56688;50.234;19.292;2024-02-23T01:51:40;96578.43;;;9.43;70.74
69127;BME280;56688;50.234;19.292;2024-02-23T01:54:08;96574.45;;;9.44;70.39
69127;BME280;56688;50.234;19.292;2024-02-23T01:56:36;96573.63;;;9.46;70.28
69127;BME280;56688;50.234;19.292;2024-02-23T01:59:07;96571.15;;;9.47;70.08
69127;BME280;56688;50.234;19.292;2024-02-23T02:01:36;96575.92;;;9.49;69.98
69127;BME280;56688;50.234;19.292;2024-02-23T02:04:04;96575.95;;;9.50;69.83
69127;BME280;56688;50.234;19.292;2024-02-23T02:06:31;96575.11;;;9.48;69.36
69127;BME280;56688;50.234;19.292;2024-02-23T02:08:58;96569.41;;;9.46;69.42
69127;BME280;56688;50.234;19.292;2024-02-23T02:11:25;96569.78;;;9.46;69.30
69127;BME280;56688;50.234;19.292;2024-02-23T02:13:52;96567.68;;;9.47;69.63
69127;BME280;56688;50.234;19.292;2024-02-23T02:16:19;96562.36;;;9.48;69.61
69127;BME280;56688;50.234;19.292;2024-02-23T02:18:46;96565.75;;;9.49;69.58
69127;BME280;56688;50.234;19.292;2024-02-23T02:21:13;96570.57;;;9.52;69.89
69127;BME280;56688;50.234;19.292;2024-02-23T02:23:41;96566.47;;;9.52;70.18
69127;BME280;56688;50.234;19.292;2024-02-23T02:26:09;96564.78;;;9.52;70.24
69127;BME280;56688;50.234;19.292;2024-02-23T02:28:36;96561.02;;;9.54;70.30
69127;BME280;56688;50.234;19.292;2024-02-23T02:31:03;96562.67;;;9.54;70.14
69127;BME280;56688;50.234;19.292;2024-02-23T02:33:32;96556.86;;;9.54;70.29
69127;BME280;56688;50.234;19.292;2024-02-23T02:35:59;96558.95;;;9.52;70.48
69127;BME280;56688;50.234;19.292;2024-02-23T02:38:26;96556.66;;;9.48;70.41
69127;BME280;56688;50.234;19.292;2024-02-23T02:40:53;96560.10;;;9.40;70.67
69127;BME280;56688;50.234;19.292;2024-02-23T02:43:20;96563.52;;;9.31;71.08
69127;BME280;56688;50.234;19.292;2024-02-23T02:45:48;96565.38;;;9.22;71.28
69127;BME280;56688;50.234;19.292;2024-02-23T02:48:15;96570.60;;;9.20;71.33
69127;BME280;56688;50.234;19.292;2024-02-23T02:50:42;96575.69;;;9.21;71.45
69127;BME280;56688;50.234;19.292;2024-02-23T02:55:57;96576.83;;;9.26;71.94
69127;BME280;56688;50.234;19.292;2024-02-23T02:58:24;96577.06;;;9.27;72.26
69127;BME280;56688;50.234;19.292;2024-02-23T03:00:51;96572.87;;;9.23;72.14
69127;BME280;56688;50.234;19.292;2024-02-23T03:03:18;96575.58;;;9.19;72.78
69127;BME280;56688;50.234;19.292;2024-02-23T03:05:45;96580.16;;;9.17;73.11
69127;BME280;56688;50.234;19.292;2024-02-23T03:08:13;96580.55;;;9.11;73.78
69127;BME280;56688;50.234;19.292;2024-02-23T03:10:39;96582.60;;;9.06;74.24
69127;BME280;56688;50.234;19.292;2024-02-23T03:13:06;96584.32;;;9.03;74.68
69127;BME280;56688;50.234;19.292;2024-02-23T03:15:33;96580.42;;;9.03;75.00
69127;BME280;56688;50.234;19.292;2024-02-23T03:18:00;96580.24;;;9.02;75.53
69127;BME280;56688;50.234;19.292;2024-02-23T03:20:29;96577.67;;;9.01;76.35
69127;BME280;56688;50.234;19.292;2024-02-23T03:22:56;96578.55;;;9.03;76.66
69127;BME280;56688;50.234;19.292;2024-02-23T03:25:23;96574.22;;;8.99;76.68
69127;BME280;56688;50.234;19.292;2024-02-23T03:27:50;96579.90;;;8.97;77.41
69127;BME280;56688;50.234;19.292;2024-02-23T03:30:17;96580.07;;;8.93;77.58
69127;BME280;56688;50.234;19.292;2024-02-23T03:32:44;96590.88;;;8.91;77.63
69127;BME280;56688;50.234;19.292;2024-02-23T03:35:13;96598.00;;;8.87;77.89
69127;BME280;56688;50.234;19.292;2024-02-23T03:37:41;96602.28;;;8.86;77.66
69127;BME280;56688;50.234;19.292;2024-02-23T03:40:08;96609.27;;;8.86;77.49
69127;BME280;56688;50.234;19.292;2024-02-23T03:42:37;96608.02;;;8.87;77.42
69127;BME280;56688;50.234;19.292;2024-02-23T03:45:05;96608.77;;;8.87;77.29
69127;BME280;56688;50.234;19.292;2024-02-23T03:47:32;96609.30;;;8.85;77.52
69127;BME280;56688;50.234;19.292;2024-02-23T03:50:00;96612.61;;;8.86;77.67
69127;BME280;56688;50.234;19.292;2024-02-23T03:52:27;96615.71;;;8.82;77.70
69127;BME280;56688;50.234;19.292;2024-02-23T03:54:54;96622.95;;;8.80;78.62
69127;BME280;56688;50.234;19.292;2024-02-23T03:57:21;96628.04;;;8.76;79.03
69127;BME280;56688;50.234;19.292;2024-02-23T03:59:53;96632.20;;;8.71;79.72
69127;BME280;56688;50.234;19.292;2024-02-23T04:02:24;96632.22;;;8.64;80.25
69127;BME280;56688;50.234;19.292;2024-02-23T04:04:51;96629.99;;;8.62;80.72
69127;BME280;56688;50.234;19.292;2024-02-23T04:07:18;96630.64;;;8.60;81.13
69127;BME280;56688;50.234;19.292;2024-02-23T04:09:45;96629.13;;;8.60;81.14
69127;BME280;56688;50.234;19.292;2024-02-23T04:12:13;96632.95;;;8.57;81.39
69127;BME280;56688;50.234;19.292;2024-02-23T04:14:41;96636.48;;;8.52;81.46
69127;BME280;56688;50.234;19.292;2024-02-23T04:17:10;96642.88;;;8.45;81.85
69127;BME280;56688;50.234;19.292;2024-02-23T04:19:40;96643.25;;;8.40;82.03
69127;BME280;56688;50.234;19.292;2024-02-23T04:22:08;96643.90;;;8.38;82.09
69127;BME280;56688;50.234;19.292;2024-02-23T04:24:39;96643.75;;;8.36;82.44
69127;BME280;56688;50.234;19.292;2024-02-23T04:27:07;96648.66;;;8.37;82.51
69127;BME280;56688;50.234;19.292;2024-02-23T04:29:34;96647.81;;;8.39;82.79
69127;BME280;56688;50.234;19.292;2024-02-23T04:32:02;96646.55;;;8.40;82.46
69127;BME280;56688;50.234;19.292;2024-02-23T04:34:30;96645.30;;;8.40;82.39
69127;BME280;56688;50.234;19.292;2024-02-23T04:36:58;96644.27;;;8.40;82.10
69127;BME280;56688;50.234;19.292;2024-02-23T04:39:25;96641.49;;;8.39;82.33
69127;BME280;56688;50.234;19.292;2024-02-23T04:41:52;96642.77;;;8.38;82.13
69127;BME280;56688;50.234;19.292;2024-02-23T04:44:20;96647.38;;;8.37;82.40
69127;BME280;56688;50.234;19.292;2024-02-23T04:46:48;96650.31;;;8.34;82.37
69127;BME280;56688;50.234;19.292;2024-02-23T04:49:15;96654.04;;;8.33;82.22
69127;BME280;56688;50.234;19.292;2024-02-23T04:51:42;96655.80;;;8.33;82.42
69127;BME280;56688;50.234;19.292;2024-02-23T04:54:09;96655.48;;;8.33;82.39
69127;BME280;56688;50.234;19.292;2024-02-23T04:56:37;96659.33;;;8.32;82.55
69127;BME280;56688;50.234;19.292;2024-02-23T04:59:04;96660.94;;;8.31;82.54
69127;BME280;56688;50.234;19.292;2024-02-23T05:01:35;96659.44;;;8.30;82.24
69127;BME280;56688;50.234;19.292;2024-02-23T05:04:03;96661.30;;;8.32;82.63
69127;BME280;56688;50.234;19.292;2024-02-23T05:06:31;96669.51;;;8.34;82.77
69127;BME280;56688;50.234;19.292;2024-02-23T05:08:58;96675.09;;;8.38;82.70
69127;BME280;56688;50.234;19.292;2024-02-23T05:11:25;96681.09;;;8.42;82.87
69127;BME280;56688;50.234;19.292;2024-02-23T05:13:53;96687.44;;;8.42;82.99
69127;BME280;56688;50.234;19.292;2024-02-23T05:16:20;96687.69;;;8.42;83.09
69127;BME280;56688;50.234;19.292;2024-02-23T05:18:47;96687.35;;;8.39;83.36
69127;BME280;56688;50.234;19.292;2024-02-23T05:21:15;96684.33;;;8.38;83.41
69127;BME280;56688;50.234;19.292;2024-02-23T05:23:42;96688.47;;;8.38;83.70
69127;BME280;56688;50.234;19.292;2024-02-23T05:26:10;96692.77;;;8.38;83.72
69127;BME280;56688;50.234;19.292;2024-02-23T05:28:37;96695.88;;;8.38;83.73
69127;BME280;56688;50.234;19.292;2024-02-23T05:31:04;96697.84;;;8.38;84.10
69127;BME280;56688;50.234;19.292;2024-02-23T05:33:31;96699.23;;;8.35;83.92
69127;BME280;56688;50.234;19.292;2024-02-23T05:35:59;96703.19;;;8.31;84.19
69127;BME280;56688;50.234;19.292;2024-02-23T05:38:25;96705.50;;;8.28;84.23
69127;BME280;56688;50.234;19.292;2024-02-23T05:40:53;96700.23;;;8.26;84.26
69127;BME280;56688;50.234;19.292;2024-02-23T05:43:20;96705.75;;;8.26;84.55
69127;BME280;56688;50.234;19.292;2024-02-23T05:45:47;96713.31;;;8.27;84.52
69127;BME280;56688;50.234;19.292;2024-02-23T05:48:14;96721.63;;;8.28;84.51
69127;BME280;56688;50.234;19.292;2024-02-23T05:50:41;96724.54;;;8.29;84.63
69127;BME280;56688;50.234;19.292;2024-02-23T05:53:08;96724.35;;;8.30;84.84
69127;BME280;56688;50.234;19.292;2024-02-23T05:55:35;96724.92;;;8.30;84.92
69127;BME280;56688;50.234;19.292;2024-02-23T05:58:02;96732.44;;;8.28;84.89
69127;BME280;56688;50.234;19.292;2024-02-23T06:00:30;96733.94;;;8.27;84.91
69127;BME280;56688;50.234;19.292;2024-02-23T06:02:58;96737.86;;;8.27;85.04
69127;BME280;56688;50.234;19.292;2024-02-23T06:05:25;96745.98;;;8.28;85.17
69127;BME280;56688;50.234;19.292;2024-02-23T06:07:55;96750.43;;;8.30;85.26
69127;BME280;56688;50.234;19.292;2024-02-23T06:10:22;96743.96;;;8.34;85.34
69127;BME280;56688;50.234;19.292;2024-02-23T06:12:49;96749.66;;;8.39;85.20
69127;BME280;56688;50.234;19.292;2024-02-23T06:15:18;96752.73;;;8.43;85.20
69127;BME280;56688;50.234;19.292;2024-02-23T06:17:45;96757.37;;;8.47;85.01
69127;BME280;56688;50.234;19.292;2024-02-23T06:20:12;96764.76;;;8.48;85.13
69127;BME280;56688;50.234;19.292;2024-02-23T06:22:40;96769.00;;;8.46;85.35
69127;BME280;56688;50.234;19.292;2024-02-23T06:25:07;96773.16;;;8.44;85.16
69127;BME280;56688;50.234;19.292;2024-02-23T06:27:35;96777.34;;;8.47;85.11
69127;BME280;56688;50.234;19.292;2024-02-23T06:30:03;96780.98;;;8.53;85.12
69127;BME280;56688;50.234;19.292;2024-02-23T06:32:30;96777.18;;;8.56;85.42
69127;BME280;56688;50.234;19.292;2024-02-23T06:34:57;96781.80;;;8.59;85.41
69127;BME280;56688;50.234;19.292;2024-02-23T06:37:27;96789.66;;;8.63;85.61
69127;BME280;56688;50.234;19.292;2024-02-23T06:39:54;96789.66;;;8.63;85.54
69127;BME280;56688;50.234;19.292;2024-02-23T06:42:21;96797.59;;;8.61;85.48
69127;BME280;56688;50.234;19.292;2024-02-23T06:44:49;96803.19;;;8.61;85.06
69127;BME280;56688;50.234;19.292;2024-02-23T06:47:16;96803.27;;;8.62;85.26
69127;BME280;56688;50.234;19.292;2024-02-23T06:49:44;96806.22;;;8.65;85.21
69127;BME280;56688;50.234;19.292;2024-02-23T06:52:11;96806.88;;;8.65;85.43
69127;BME280;56688;50.234;19.292;2024-02-23T06:54:39;96813.58;;;8.63;85.55
69127;BME280;56688;50.234;19.292;2024-02-23T06:57:06;96814.30;;;8.60;85.61
69127;BME280;56688;50.234;19.292;2024-02-23T06:59:33;96818.67;;;8.56;85.78
69127;BME280;56688;50.234;19.292;2024-02-23T07:02:00;96825.45;;;8.55;85.73
69127;BME280;56688;50.234;19.292;2024-02-23T07:04:27;96831.52;;;8.52;85.52
69127;BME280;56688;50.234;19.292;2024-02-23T07:06:55;96837.21;;;8.50;85.82
69127;BME280;56688;50.234;19.292;2024-02-23T07:09:22;96848.60;;;8.50;86.09
69127;BME280;56688;50.234;19.292;2024-02-23T07:11:49;96849.37;;;8.52;86.09
69127;BME280;56688;50.234;19.292;2024-02-23T07:14:16;96855.20;;;8.55;86.17
69127;BME280;56688;50.234;19.292;2024-02-23T07:16:45;96852.11;;;8.56;86.22
69127;BME280;56688;50.234;19.292;2024-02-23T07:19:12;96850.10;;;8.57;86.07
69127;BME280;56688;50.234;19.292;2024-02-23T07:21:39;96860.52;;;8.55;86.13
69127;BME280;56688;50.234;19.292;2024-02-23T07:24:09;96866.33;;;8.55;86.13
69127;BME280;56688;50.234;19.292;2024-02-23T07:26:36;96874.48;;;8.55;86.56
69127;BME280;56688;50.234;19.292;2024-02-23T07:29:04;96879.47;;;8.56;86.74
69127;BME280;56688;50.234;19.292;2024-02-23T07:31:31;96881.30;;;8.57;86.68
69127;BME280;56688;50.234;19.292;2024-02-23T07:33:59;96882.98;;;8.60;86.79
69127;BME280;56688;50.234;19.292;2024-02-23T07:36:27;96882.11;;;8.67;86.90
69127;BME280;56688;50.234;19.292;2024-02-23T07:38:54;96878.50;;;8.73;87.16
69127;BME280;56688;50.234;19.292;2024-02-23T07:41:21;96874.73;;;8.79;86.60
69127;BME280;56688;50.234;19.292;2024-02-23T07:43:49;96875.12;;;8.80;86.69
69127;BME280;56688;50.234;19.292;2024-02-23T07:46:16;96876.16;;;8.79;86.57
69127;BME280;56688;50.234;19.292;2024-02-23T07:48:43;96877.92;;;8.74;86.48
69127;BME280;56688;50.234;19.292;2024-02-23T07:51:10;96878.70;;;8.73;86.79
69127;BME280;56688;50.234;19.292;2024-02-23T07:53:37;96877.83;;;8.76;86.84
69127;BME280;56688;50.234;19.292;2024-02-23T07:56:07;96878.45;;;8.79;87.11
69127;BME280;56688;50.234;19.292;2024-02-23T07:58:34;96879.31;;;8.79;86.84
69127;BME280;56688;50.234;19.292;2024-02-23T08:01:01;96880.20;;;8.80;86.91
69127;BME280;56688;50.234;19.292;2024-02-23T08:03:28;96877.28;;;8.81;87.08
69127;BME280;56688;50.234;19.292;2024-02-23T08:05:56;96878.11;;;8.82;87.14
69127;BME280;56688;50.234;19.292;2024-02-23T08:08:28;96877.66;;;8.85;86.82
69127;BME280;56688;50.234;19.292;2024-02-23T08:10:59;96876.05;;;8.89;86.99
69127;BME280;56688;50.234;19.292;2024-02-23T08:13:27;96879.24;;;8.93;86.91
69127;BME280;56688;50.234;19.292;2024-02-23T08:15:54;96880.31;;;8.98;87.10
69127;BME280;56688;50.234;19.292;2024-02-23T08:18:20;96882.48;;;9.02;86.95
69127;BME280;56688;50.234;19.292;2024-02-23T08:20:51;96890.83;;;9.00;86.29
69127;BME280;56688;50.234;19.292;2024-02-23T08:23:18;96893.27;;;9.02;86.85
69127;BME280;56688;50.234;19.292;2024-02-23T08:25:47;96891.49;;;9.03;86.74
69127;BME280;56688;50.234;19.292;2024-02-23T08:28:14;96899.11;;;9.06;86.67
69127;BME280;56688;50.234;19.292;2024-02-23T08:30:41;96898.80;;;9.10;86.72
69127;BME280;56688;50.234;19.292;2024-02-23T08:33:08;96903.27;;;9.12;86.50
69127;BME280;56688;50.234;19.292;2024-02-23T08:35:37;96902.73;;;9.13;86.67
69127;BME280;56688;50.234;19.292;2024-02-23T08:38:04;96905.52;;;9.17;86.62
69127;BME280;56688;50.234;19.292;2024-02-23T08:40:31;96914.29;;;9.14;86.42
69127;BME280;56688;50.234;19.292;2024-02-23T08:42:59;96915.36;;;9.11;86.27
69127;BME280;56688;50.234;19.292;2024-02-23T08:45:26;96912.81;;;9.12;86.68
69127;BME280;56688;50.234;19.292;2024-02-23T08:47:53;96914.95;;;9.13;86.69
69127;BME280;56688;50.234;19.292;2024-02-23T08:50:20;96915.65;;;9.11;86.44
69127;BME280;56688;50.234;19.292;2024-02-23T08:52:47;96917.80;;;9.09;86.57
69127;BME280;56688;50.234;19.292;2024-02-23T08:55:14;96917.75;;;9.06;86.72
69127;BME280;56688;50.234;19.292;2024-02-23T08:57:41;96921.41;;;9.05;86.87
69127;BME280;56688;50.234;19.292;2024-02-23T09:00:09;96922.17;;;9.07;87.18
69127;BME280;56688;50.234;19.292;2024-02-23T09:02:37;96926.14;;;9.10;87.14
69127;BME280;56688;50.234;19.292;2024-02-23T09:05:05;96933.40;;;9.13;87.38
69127;BME280;56688;50.234;19.292;2024-02-23T09:07:32;96937.63;;;9.16;87.27
69127;BME280;56688;50.234;19.292;2024-02-23T09:10:00;96934.76;;;9.21;87.45
69127;BME280;56688;50.234;19.292;2024-02-23T09:12:27;96936.67;;;9.28;87.49
69127;BME280;56688;50.234;19.292;2024-02-23T09:14:54;96936.80;;;9.32;87.55
69127;BME280;56688;50.234;19.292;2024-02-23T09:17:21;96938.33;;;9.36;87.37
69127;BME280;56688;50.234;19.292;2024-02-23T09:19:48;96940.27;;;9.38;87.00
69127;BME280;56688;50.234;19.292;2024-02-23T09:22:15;96943.98;;;9.43;87.11
69127;BME280;56688;50.234;19.292;2024-02-23T09:24:43;96942.50;;;9.50;87.32
69127;BME280;56688;50.234;19.292;2024-02-23T09:27:10;96943.70;;;9.54;86.90
69127;BME280;56688;50.234;19.292;2024-02-23T09:29:38;96944.81;;;9.56;86.33
69127;BME280;56688;50.234;19.292;2024-02-23T09:32:05;96949.21;;;9.55;85.71
69127;BME280;56688;50.234;19.292;2024-02-23T09:34:33;96952.15;;;9.54;86.01
69127;BME280;56688;50.234;19.292;2024-02-23T09:37:00;96953.90;;;9.54;85.69
69127;BME280;56688;50.234;19.292;2024-02-23T09:39:27;96960.00;;;9.56;85.86
69127;BME280;56688;50.234;19.292;2024-02-23T09:41:58;96964.23;;;9.58;85.81
69127;BME280;56688;50.234;19.292;2024-02-23T09:44:32;96962.17;;;9.64;86.00
69127;BME280;56688;50.234;19.292;2024-02-23T09:47:03;96970.20;;;9.67;85.12
69127;BME280;56688;50.234;19.292;2024-02-23T09:49:37;96972.95;;;9.67;84.99
69127;BME280;56688;50.234;19.292;2024-02-23T09:52:07;96980.50;;;9.64;85.15
69127;BME280;56688;50.234;19.292;2024-02-23T09:54:37;96980.44;;;9.63;84.69
69127;BME280;56688;50.234;19.292;2024-02-23T09:57:08;96987.71;;;9.62;84.47
69127;BME280;56688;50.234;19.292;2024-02-23T09:59:36;96988.14;;;9.64;84.51
69127;BME280;56688;50.234;19.292;2024-02-23T10:02:08;96989.43;;;9.67;84.47
69127;BME280;56688;50.234;19.292;2024-02-23T10:04:38;96982.11;;;9.69;84.32
69127;BME280;56688;50.234;19.292;2024-02-23T10:07:06;96989.33;;;9.69;84.03
69127;BME280;56688;50.234;19.292;2024-02-23T10:09:33;96991.45;;;9.67;84.00
69127;BME280;56688;50.234;19.292;2024-02-23T10:12:02;96993.08;;;9.68;83.78
69127;BME280;56688;50.234;19.292;2024-02-23T10:14:29;96999.40;;;9.71;83.63
69127;BME280;56688;50.234;19.292;2024-02-23T10:16:56;97004.75;;;9.75;83.93
69127;BME280;56688;50.234;19.292;2024-02-23T10:19:24;97011.25;;;9.80;84.09
69127;BME280;56688;50.234;19.292;2024-02-23T10:21:56;97008.42;;;9.85;84.21
69127;BME280;56688;50.234;19.292;2024-02-23T10:24:23;97003.89;;;9.92;84.35
69127;BME280;56688;50.234;19.292;2024-02-23T10:26:52;97001.80;;;9.95;84.16
69127;BME280;56688;50.234;19.292;2024-02-23T10:29:20;97004.91;;;9.99;84.08
69127;BME280;56688;50.234;19.292;2024-02-23T10:31:51;97007.01;;;10.04;83.64
69127;BME280;56688;50.234;19.292;2024-02-23T10:34:19;96997.73;;;10.08;83.76
69127;BME280;56688;50.234;19.292;2024-02-23T10:36:47;96995.97;;;10.07;83.34
69127;BME280;56688;50.234;19.292;2024-02-23T10:39:18;96996.18;;;10.07;83.11
69127;BME280;56688;50.234;19.292;2024-02-23T10:41:56;96992.22;;;10.09;83.11
69127;BME280;56688;50.234;19.292;2024-02-23T10:44:28;96991.87;;;10.08;82.89
69127;BME280;56688;50.234;19.292;2024-02-23T10:46:56;96995.27;;;10.07;82.25
69127;BME280;56688;50.234;19.292;2024-02-23T10:49:25;96997.64;;;10.04;82.15
69127;BME280;56688;50.234;19.292;2024-02-23T10:51:54;96999.56;;;9.97;81.44
69127;BME280;56688;50.234;19.292;2024-02-23T10:54:22;96999.27;;;9.91;82.17
69127;BME280;56688;50.234;19.292;2024-02-23T10:56:50;97002.10;;;9.90;82.48
69127;BME280;56688;50.234;19.292;2024-02-23T10:59:18;97003.58;;;9.88;82.66
69127;BME280;56688;50.234;19.292;2024-02-23T11:01:48;97009.61;;;9.88;82.80
69127;BME280;56688;50.234;19.292;2024-02-23T11:04:17;97016.45;;;9.84;82.29
69127;BME280;56688;50.234;19.292;2024-02-23T11:06:50;97022.79;;;9.77;82.41
69127;BME280;56688;50.234;19.292;2024-02-23T11:09:21;97025.80;;;9.69;82.32
69127;BME280;56688;50.234;19.292;2024-02-23T11:14:36;97030.40;;;9.53;82.39
69127;BME280;56688;50.234;19.292;2024-02-23T11:17:05;97031.97;;;9.47;82.95
69127;BME280;56688;50.234;19.292;2024-02-23T11:19:34;97031.92;;;9.44;82.88
69127;BME280;56688;50.234;19.292;2024-02-23T11:22:02;97031.66;;;9.39;83.15
69127;BME280;56688;50.234;19.292;2024-02-23T11:24:30;97033.98;;;9.40;83.59
69127;BME280;56688;50.234;19.292;2024-02-23T11:26:59;97026.46;;;9.44;83.64
69127;BME280;56688;50.234;19.292;2024-02-23T11:29:29;97021.62;;;9.45;83.89
69127;BME280;56688;50.234;19.292;2024-02-23T11:31:56;97025.82;;;9.46;83.91
69127;BME280;56688;50.234;19.292;2024-02-23T11:34:27;97030.23;;;9.48;84.28
69127;BME280;56688;50.234;19.292;2024-02-23T11:36:55;97035.19;;;9.51;84.06
69127;BME280;56688;50.234;19.292;2024-02-23T11:39:23;97037.64;;;9.53;84.03
69127;BME280;56688;50.234;19.292;2024-02-23T11:42:08;97037.40;;;9.55;84.26
69127;BME280;56688;50.234;19.292;2024-02-23T11:44:35;97041.52;;;9.54;83.91
69127;BME280;56688;50.234;19.292;2024-02-23T11:47:03;97041.89;;;9.57;84.43
69127;BME280;56688;50.234;19.292;2024-02-23T11:49:30;97038.92;;;9.61;84.37
69127;BME280;56688;50.234;19.292;2024-02-23T11:51:57;97035.73;;;9.60;83.89
69127;BME280;56688;50.234;19.292;2024-02-23T11:54:24;97038.85;;;9.60;83.90
69127;BME280;56688;50.234;19.292;2024-02-23T11:56:51;97046.35;;;9.64;84.48
69127;BME280;56688;50.234;19.292;2024-02-23T11:59:20;97051.14;;;9.65;84.15
69127;BME280;56688;50.234;19.292;2024-02-23T12:01:47;97056.88;;;9.67;83.81
69127;BME280;56688;50.234;19.292;2024-02-23T12:04:14;97057.88;;;9.72;83.94
69127;BME280;56688;50.234;19.292;2024-02-23T12:06:42;97066.89;;;9.77;83.89
69127;BME280;56688;50.234;19.292;2024-02-23T12:09:12;97071.68;;;9.78;83.56
69127;BME280;56688;50.234;19.292;2024-02-23T12:11:40;97077.71;;;9.78;83.91
69127;BME280;56688;50.234;19.292;2024-02-23T12:14:08;97079.64;;;9.81;84.27
69127;BME280;56688;50.234;19.292;2024-02-23T12:16:35;97078.30;;;9.80;84.11
69127;BME280;56688;50.234;19.292;2024-02-23T12:19:03;97081.88;;;9.85;84.34
69127;BME280;56688;50.234;19.292;2024-02-23T12:21:34;97082.48;;;9.86;83.76
69127;BME280;56688;50.234;19.292;2024-02-23T12:24:05;97090.33;;;9.85;83.75
69127;BME280;56688;50.234;19.292;2024-02-23T12:26:34;97088.05;;;9.86;83.76
69127;BME280;56688;50.234;19.292;2024-02-23T12:29:02;97079.96;;;9.87;83.77
69127;BME280;56688;50.234;19.292;2024-02-23T12:31:32;97065.75;;;9.91;84.27
69127;BME280;56688;50.234;19.292;2024-02-23T12:34:00;97053.84;;;9.94;84.15
69127;BME280;56688;50.234;19.292;2024-02-23T12:36:28;97053.63;;;9.94;83.59
69127;BME280;56688;50.234;19.292;2024-02-23T12:38:55;97058.90;;;9.94;83.53
69127;BME280;56688;50.234;19.292;2024-02-23T12:41:23;97063.56;;;9.95;83.81
69127;BME280;56688;50.234;19.292;2024-02-23T12:43:50;97069.11;;;9.99;84.45
69127;BME280;56688;50.234;19.292;2024-02-23T12:46:19;97066.59;;;10.01;83.36
69127;BME280;56688;50.234;19.292;2024-02-23T12:48:47;97067.86;;;10.00;83.68
69127;BME280;56688;50.234;19.292;2024-02-23T12:51:14;97076.91;;;10.03;83.86
69127;BME280;56688;50.234;19.292;2024-02-23T12:53:42;97074.88;;;10.07;84.15
69127;BME280;56688;50.234;19.292;2024-02-23T12:56:12;97082.96;;;10.10;83.90
69127;BME280;56688;50.234;19.292;2024-02-23T12:58:41;97082.20;;;10.11;83.58
69127;BME280;56688;50.234;19.292;2024-02-23T13:01:10;97087.46;;;10.12;82.65
69127;BME280;56688;50.234;19.292;2024-02-23T13:03:38;97085.12;;;10.08;82.51
69127;BME280;56688;50.234;19.292;2024-02-23T13:06:08;97084.81;;;10.07;82.44
69127;BME280;56688;50.234;19.292;2024-02-23T13:08:35;97082.44;;;10.06;82.65